Time;durP1;ratioP1;P1;durP2;ratioP2;P2;SDS_P1;SDS_P2;PMS_P1;PMS_P2;Temp;Humidity;BMP_temperature;BMP_pressure;BME280_temperature;BME280_humidity;BME280_pressure;Samples;Min_cycle;Max_cycle;Signal;HPM_P1;HPM_P2
2022/09/01 00:02:26;;;;;;;1.70;0.90;;;;;;;19.35;100.00;99520.96;1791913;80;21488;-70
2022/09/01 00:05:03;;;;;;;4.62;1.10;;;;;;;19.37;100.00;99518.59;1788604;80;20880;-74
2022/09/01 00:07:37;;;;;;;2.62;1.20;;;;;;;19.44;100.00;99517.88;1789298;79;20984;-73
2022/09/01 00:10:14;;;;;;;2.10;0.95;;;;;;;19.46;100.00;99515.52;1762085;80;20838;-72
2022/09/01 00:12:44;;;;;;;2.58;0.90;;;;;;;19.44;100.00;99518.69;1773634;80;21795;-70
2022/09/01 00:15:12;;;;;;;1.95;1.00;;;;;;;19.48;100.00;99516.53;1774406;81;20965;-72
2022/09/01 00:17:47;;;;;;;2.25;0.82;;;;;;;19.49;100.00;99519.52;1770154;81;20976;-72
2022/09/01 00:20:18;;;;;;;1.15;0.70;;;;;;;19.51;100.00;99514.36;1774157;80;20889;-72
2022/09/01 00:22:51;;;;;;;2.58;1.10;;;;;;;19.52;100.00;99518.75;1770332;81;20936;-72
2022/09/01 00:25:22;;;;;;;4.30;0.93;;;;;;;19.54;100.00;99519.19;1774351;81;21576;-72
2022/09/01 00:27:59;;;;;;;5.22;1.02;;;;;;;19.53;100.00;99518.98;1773850;80;20965;-72
2022/09/01 00:30:33;;;;;;;2.40;0.80;;;;;;;19.56;100.00;99517.63;1750699;81;20992;-73
2022/09/01 00:33:12;;;;;;;1.60;1.00;;;;;;;19.56;100.00;99514.84;1769934;81;20981;-72
2022/09/01 00:35:43;;;;;;;1.60;0.90;;;;;;;19.55;100.00;99512.42;1774137;80;20921;-72
2022/09/01 00:38:13;;;;;;;1.77;1.00;;;;;;;19.54;100.00;99517.20;1774276;80;21978;-71
2022/09/01 00:40:52;;;;;;;3.10;1.57;;;;;;;19.54;100.00;99521.39;1750449;81;20984;-70
2022/09/01 00:44:00;;;;;;;5.03;1.50;;;;;;;19.53;100.00;99521.16;1758295;81;21454;-72
2022/09/01 00:46:35;;;;;;;;;;;;;;;19.52;100.00;99523.75;1775257;80;21032;-75
2022/09/01 00:49:13;;;;;;;4.42;1.20;;;;;;;19.44;100.00;99525.67;1770304;80;20461;-72
2022/09/01 00:51:46;;;;;;;2.30;0.98;;;;;;;19.41;100.00;99519.45;1773935;80;21242;-71
2022/09/01 00:54:33;;;;;;;6.55;1.37;;;;;;;19.42;100.00;99525.25;1733676;82;20944;-69
2022/09/01 00:57:12;;;;;;;2.42;1.37;;;;;;;19.45;100.00;99526.45;1742504;82;20985;-71
2022/09/01 01:00:00;;;;;;;2.75;1.75;;;;;;;19.50;100.00;99521.93;1743846;82;20961;-72
2022/09/01 01:02:40;;;;;;;3.70;1.27;;;;;;;19.47;100.00;99522.70;1743409;82;20893;-72
2022/09/01 01:05:14;;;;;;;3.65;1.27;;;;;;;19.42;100.00;99522.45;1719995;82;20925;-71
2022/09/01 01:10:31;;;;;;;3.30;1.70;;;;;;;19.31;100.00;99520.91;1741481;82;20996;-74
2022/09/01 01:13:00;;;;;;;6.72;1.22;;;;;;;19.29;100.00;99525.28;1720439;82;20972;-71
2022/09/01 01:15:30;;;;;;;3.65;1.45;;;;;;;19.27;100.00;99519.27;1743504;82;20980;-71
2022/09/01 01:18:05;;;;;;;2.22;1.20;;;;;;;19.26;100.00;99520.46;1743404;82;21157;-75
2022/09/01 01:23:49;;;;;;;6.05;1.60;;;;;;;19.16;100.00;99519.93;1743396;82;20980;-69
2022/09/01 01:26:29;;;;;;;1.87;1.17;;;;;;;19.14;100.00;99523.69;1683062;85;21041;-73
2022/09/01 01:29:00;;;;;;;2.47;1.00;;;;;;;19.12;100.00;99525.27;1730306;82;20905;-73
2022/09/01 01:31:36;;;;;;;3.52;1.12;;;;;;;19.07;100.00;99519.40;1739776;82;20968;-70
2022/09/01 01:34:07;;;;;;;2.72;1.40;;;;;;;18.97;100.00;99520.25;1743760;82;20884;-72
2022/09/01 01:36:44;;;;;;;4.03;1.27;;;;;;;18.89;100.00;99521.34;1720167;82;20980;-71
2022/09/01 01:39:32;;;;;;;3.92;1.05;;;;;;;18.85;100.00;99514.31;1743399;82;21337;-73
2022/09/01 01:42:08;;;;;;;3.75;1.00;;;;;;;18.78;100.00;99515.59;1743386;82;21095;-72
2022/09/01 01:44:53;;;;;;;3.67;1.20;;;;;;;18.72;100.00;99508.16;1743062;82;20933;-73
2022/09/01 01:47:24;;;;;;;2.30;1.25;;;;;;;18.69;100.00;99512.28;1741259;82;21048;-71
2022/09/01 01:49:56;;;;;;;5.03;1.35;;;;;;;18.64;100.00;99516.79;1743163;82;20884;-72
2022/09/01 01:52:24;;;;;;;5.28;1.10;;;;;;;18.58;100.00;99510.72;1743372;82;20920;-72
2022/09/01 01:55:09;;;;;;;1.65;1.00;;;;;;;18.49;100.00;99511.00;1743383;82;20980;-71
2022/09/01 01:57:34;;;;;;;1.92;1.05;;;;;;;18.41;100.00;99507.28;1743197;82;21564;-75
2022/09/01 02:00:02;;;;;;;1.40;1.07;;;;;;;18.34;100.00;99508.55;1743797;82;20913;-71
2022/09/01 02:02:31;;;;;;;1.67;1.30;;;;;;;18.30;100.00;99507.70;1743140;82;21500;-71
2022/09/01 02:05:08;;;;;;;6.42;1.30;;;;;;;18.29;100.00;99502.70;1743442;82;20873;-72
2022/09/01 02:07:47;;;;;;;3.65;1.60;;;;;;;18.27;100.00;99507.06;1743442;81;21406;-71
2022/09/01 02:10:21;;;;;;;6.25;2.10;;;;;;;18.24;100.00;99506.63;1711531;83;20940;-75
2022/09/01 02:12:54;;;;;;;6.67;2.47;;;;;;;18.18;100.00;99502.55;1666013;86;21017;-72
2022/09/01 02:15:30;;;;;;;7.08;2.37;;;;;;;18.10;100.00;99502.97;1710166;84;21040;-72
2022/09/01 02:18:00;;;;;;;7.30;3.90;;;;;;;18.00;100.00;99495.22;1666758;86;20964;-71
2022/09/01 02:20:28;;;;;;;4.72;3.42;;;;;;;17.91;100.00;99496.89;1681258;84;20997;-70
2022/09/01 02:23:14;;;;;;;7.83;4.25;;;;;;;17.83;100.00;99498.72;1666576;86;20992;-74
2022/09/01 02:25:48;;;;;;;12.00;5.10;;;;;;;17.75;100.00;99503.95;1710851;83;20968;-71
2022/09/01 02:28:18;;;;;;;11.50;4.92;;;;;;;17.66;100.00;99504.78;1669818;84;20932;-71
2022/09/01 02:30:56;;;;;;;8.18;5.35;;;;;;;17.59;100.00;99506.81;1679706;84;20993;-72
2022/09/01 02:33:27;;;;;;;9.48;5.28;;;;;;;17.55;100.00;99503.17;1670534;86;20980;-70
2022/09/01 02:36:14;;;;;;;10.20;5.50;;;;;;;17.48;100.00;99494.91;1707138;84;21533;-72
2022/09/01 02:38:47;;;;;;;11.88;5.97;;;;;;;17.45;100.00;99505.37;1669642;86;20984;-72
2022/09/01 02:41:23;;;;;;;11.00;5.67;;;;;;;17.38;100.00;99506.64;1706126;84;21091;-71
2022/09/01 02:44:10;;;;;;;11.38;5.97;;;;;;;17.34;100.00;99510.74;1706179;83;21492;-72
2022/09/01 02:46:48;;;;;;;19.20;5.67;;;;;;;17.29;100.00;99512.42;1709593;84;20929;-71
2022/09/01 02:49:24;;;;;;;14.00;6.53;;;;;;;17.21;100.00;99519.02;1666911;86;20933;-71
2022/09/01 02:52:03;;;;;;;11.53;6.60;;;;;;;17.10;100.00;99516.81;1681565;84;20889;-71
2022/09/01 02:54:36;;;;;;;13.90;5.62;;;;;;;17.07;100.00;99515.31;1669706;85;20960;-71
2022/09/01 02:57:12;;;;;;;11.75;5.97;;;;;;;17.10;100.00;99520.17;1710436;84;21401;-71
2022/09/01 02:59:47;;;;;;;11.05;5.78;;;;;;;17.14;100.00;99529.41;1649176;86;21047;-70
2022/09/01 03:02:20;;;;;;;10.90;5.65;;;;;;;17.19;100.00;99527.73;1681604;84;21167;-72
2022/09/01 03:05:03;;;;;;;10.82;5.47;;;;;;;17.23;100.00;99527.21;1669785;85;20916;-72
2022/09/01 03:07:41;;;;;;;12.23;5.42;;;;;;;17.18;100.00;99528.89;1710827;84;21048;-70
2022/09/01 03:10:12;;;;;;;10.58;6.20;;;;;;;17.10;100.00;99530.73;1671272;85;20996;-73
2022/09/01 03:12:50;;;;;;;9.73;5.90;;;;;;;17.02;100.00;99531.72;1670117;85;20964;-70
2022/09/01 03:15:17;;;;;;;14.05;6.05;;;;;;;16.96;100.00;99534.54;1710004;84;21523;-71
2022/09/01 03:17:53;;;;;;;12.28;5.62;;;;;;;16.86;100.00;99533.95;1688021;84;20948;-71
2022/09/01 03:20:20;;;;;;;11.83;6.20;;;;;;;16.79;100.00;99534.59;1683235;85;21032;-70
2022/09/01 03:22:56;;;;;;;13.58;6.25;;;;;;;16.75;100.00;99540.65;1687789;84;20937;-70
2022/09/01 03:25:38;;;;;;;16.20;5.70;;;;;;;16.71;100.00;99544.52;1681442;85;21416;-69
2022/09/01 03:28:11;;;;;;;;;;;;;;;16.64;100.00;99547.94;1677209;85;21015;-73
2022/09/01 03:30:48;;;;;;;11.30;4.72;;;;;;;16.60;100.00;99545.07;1697355;84;20102;-73
2022/09/01 03:33:35;;;;;;;10.82;5.90;;;;;;;16.59;100.00;99552.39;1700588;84;20954;-74
2022/09/01 03:36:19;;;;;;;14.33;5.90;;;;;;;16.62;100.00;99546.09;1699788;84;20978;-71
2022/09/01 03:38:58;;;;;;;13.78;5.70;;;;;;;16.71;100.00;99546.73;1700575;84;21492;-71
2022/09/01 03:41:36;;;;;;;12.05;6.03;;;;;;;16.68;100.00;99553.02;1700594;84;21270;-71
2022/09/01 03:44:15;;;;;;;;;;;;;;;16.60;100.00;99558.98;1703025;84;21066;-71
2022/09/01 03:47:00;;;;;;;11.65;6.25;;;;;;;16.65;100.00;99555.14;1699192;84;20101;-69
2022/09/01 03:49:44;;;;;;;11.12;5.87;;;;;;;16.76;100.00;99553.98;1681218;84;21015;-71
2022/09/01 03:52:16;;;;;;;11.93;5.80;;;;;;;16.88;100.00;99555.84;1697922;84;20954;-71
2022/09/01 03:54:54;;;;;;;9.50;5.10;;;;;;;16.98;100.00;99551.11;1681735;84;20982;-70
2022/09/01 03:57:27;;;;;;;11.18;5.40;;;;;;;17.03;100.00;99555.00;1700563;84;20986;-71
2022/09/01 04:00:06;;;;;;;9.13;5.90;;;;;;;17.10;100.00;99550.78;1700235;84;20933;-72
2022/09/01 04:02:49;;;;;;;10.43;5.05;;;;;;;17.20;100.00;99557.75;1681063;84;20952;-71
2022/09/01 04:05:32;;;;;;;9.93;5.65;;;;;;;17.28;100.00;99561.72;1700398;84;21076;-71
2022/09/01 04:08:04;;;;;;;13.15;6.28;;;;;;;17.36;100.00;99557.70;1699597;84;21191;-71
2022/09/01 04:10:48;;;;;;;10.40;5.70;;;;;;;17.39;100.00;99557.78;1678237;84;21450;-69
2022/09/01 04:13:33;;;;;;;14.38;5.40;;;;;;;17.42;100.00;99569.38;1699168;84;20913;-71
2022/09/01 04:18:03;;;;;;;9.28;5.60;;;;;;;17.44;100.00;99570.61;1674970;84;21001;-71
2022/09/01 04:18:49;;;;;;;11.30;6.12;;;;;;;17.47;100.00;99568.47;1706081;84;20953;-74
2022/09/01 04:21:19;;;;;;;10.72;6.10;;;;;;;17.54;100.00;99575.38;1709914;84;21222;-71
2022/09/01 04:23:56;;;;;;;12.95;6.37;;;;;;;17.61;100.00;99581.08;1681383;85;21009;-72
2022/09/01 04:26:32;;;;;;;11.08;5.45;;;;;;;17.69;100.00;99577.27;1717240;83;21413;-70
2022/09/01 04:29:10;;;;;;;;;;;;;;;17.75;100.00;99576.39;1691403;83;21463;-70
2022/09/01 04:31:41;;;;;;;15.70;6.30;;;;;;;17.74;100.00;99574.79;1717910;83;20153;-72
2022/09/01 04:34:35;;;;;;;17.02;6.45;;;;;;;17.80;100.00;99577.48;1723779;82;21493;-72
2022/09/01 04:40:24;;;;;;;15.93;8.45;;;;;;;17.94;100.00;99578.36;1712999;83;21016;-71
2022/09/01 04:43:14;;;;;;;17.55;9.40;;;;;;;18.04;100.00;99585.88;1635655;86;21022;-71
2022/09/01 04:45:54;;;;;;;17.35;9.35;;;;;;;18.16;100.00;99587.72;1678747;85;21012;-74
2022/09/01 04:48:41;;;;;;;19.12;10.32;;;;;;;18.27;100.00;99586.53;1677676;85;21016;-73
2022/09/01 04:51:26;;;;;;;23.45;10.18;;;;;;;18.32;100.00;99580.65;1674512;85;21552;-70
2022/09/01 04:54:15;;;;;;;16.57;9.10;;;;;;;18.34;100.00;99579.66;1618215;86;20984;-73
2022/09/01 04:57:00;;;;;;;21.68;9.85;;;;;;;18.41;100.00;99582.58;1650402;86;21040;-74
2022/09/01 04:59:35;;;;;;;19.98;9.45;;;;;;;18.44;100.00;99583.84;1649277;86;21071;-70
2022/09/01 05:02:08;;;;;;;16.25;9.48;;;;;;;18.41;100.00;99581.19;1653361;86;21091;-74
2022/09/01 05:04:45;;;;;;;17.98;9.50;;;;;;;18.39;100.00;99579.36;1639709;86;20973;-69
2022/09/01 05:07:09;;;;;;;15.43;8.78;;;;;;;18.49;100.00;99580.73;1598039;88;21548;-68
2022/09/01 05:09:53;;;;;;;17.10;8.93;;;;;;;18.57;100.00;99581.06;1617736;88;21616;-71
2022/09/01 05:12:45;;;;;;;17.25;7.97;;;;;;;18.64;100.00;99578.98;1599455;88;21071;-73
2022/09/01 05:15:27;;;;;;;16.85;9.45;;;;;;;18.75;100.00;99578.35;1648963;86;21519;-70
2022/09/01 05:18:01;;;;;;;18.07;7.78;;;;;;;18.87;100.00;99576.73;1644365;83;21408;-73
2022/09/01 05:20:40;;;;;;;14.23;7.50;;;;;;;18.92;100.00;99577.80;1725445;83;21063;-71
2022/09/01 05:23:25;;;;;;;13.50;7.50;;;;;;;18.91;100.00;99578.17;1713679;83;20967;-73
2022/09/01 05:26:30;;;;;;;16.37;7.40;;;;;;;18.96;100.00;99578.67;1695358;83;20948;-74
2022/09/01 05:29:14;;;;;;;16.02;7.78;;;;;;;19.07;100.00;99576.63;1718792;83;21020;-74
2022/09/01 05:32:07;;;;;;;17.02;7.60;;;;;;;19.18;100.00;99579.00;1690275;83;20991;-74
2022/09/01 05:34:44;;;;;;;19.75;8.33;;;;;;;19.30;100.00;99581.34;1750134;81;21005;-72
2022/09/01 05:37:20;;;;;;;13.68;7.15;;;;;;;19.45;100.00;99574.77;1747203;81;20893;-75
2022/09/01 05:39:54;;;;;;;16.05;6.95;;;;;;;19.48;100.00;99576.01;1723269;81;20960;-70
2022/09/01 05:42:49;;;;;;;19.87;8.78;;;;;;;19.49;100.00;99570.62;1747475;81;21893;-69
2022/09/01 05:45:54;;;;;;;19.40;7.42;;;;;;;19.57;100.00;99577.91;1686421;85;21492;-70
2022/09/01 05:48:33;;;;;;;16.73;6.83;;;;;;;19.64;100.00;99575.78;1753718;81;20924;-71
2022/09/01 05:51:26;;;;;;;15.68;7.97;;;;;;;19.72;100.00;99574.48;1751859;81;20972;-70
2022/09/01 05:54:08;;;;;;;18.60;7.85;;;;;;;19.75;100.00;99575.92;1751305;81;21544;-74
2022/09/01 05:57:02;;;;;;;12.58;6.20;;;;;;;19.77;100.00;99574.92;1753057;81;20947;-71
2022/09/01 05:59:53;;;;;;;13.83;7.45;;;;;;;19.79;100.00;99568.36;1750052;81;20941;-70
2022/09/01 06:02:29;;;;;;;11.05;6.55;;;;;;;19.83;100.00;99567.02;1748368;81;20983;-74
2022/09/01 06:05:15;;;;;;;16.00;6.50;;;;;;;19.90;100.00;99562.91;1737100;81;21007;-72
2022/09/01 06:07:54;;;;;;;14.38;6.33;;;;;;;19.94;100.00;99563.73;1727487;81;20904;-72
2022/09/01 06:14:21;;;;;;;11.18;5.20;;;;;;;19.98;100.00;99568.58;1753771;81;21409;-75
2022/09/01 06:17:05;;;;;;;9.83;4.75;;;;;;;20.02;100.00;99561.83;1730642;81;21025;-71
2022/09/01 06:19:34;;;;;;;12.30;5.28;;;;;;;20.11;100.00;99562.95;1754403;81;21055;-73
2022/09/01 06:22:06;;;;;;;;;;;;;;;20.17;100.00;99560.59;1756169;81;20880;-72
2022/09/01 06:24:39;;;;;;;9.45;3.85;;;;;;;20.24;100.00;99565.44;1722598;81;21232;-71
2022/09/01 06:27:19;;;;;;;7.00;3.50;;;;;;;20.26;100.00;99565.87;1751855;81;20932;-72
2022/09/01 06:30:13;;;;;;;7.12;3.77;;;;;;;20.31;100.00;99568.31;1752754;81;20901;-71
2022/09/01 06:32:45;;;;;;;7.53;3.80;;;;;;;20.29;100.00;99565.09;1752247;81;21043;-73
2022/09/01 06:35:28;;;;;;;5.72;3.30;;;;;;;20.29;100.00;99571.50;1752742;81;20865;-72
2022/09/01 06:37:58;;;;;;;6.15;3.87;;;;;;;20.45;100.00;99566.83;1753565;81;21025;-70
2022/09/01 06:40:36;;;;;;;7.97;4.37;;;;;;;20.53;100.00;99565.11;1753605;81;20955;-70
2022/09/01 06:43:18;;;;;;;7.28;3.67;;;;;;;20.63;100.00;99566.96;1746846;81;20932;-74
2022/09/01 06:46:04;;;;;;;5.62;3.60;;;;;;;20.70;100.00;99562.83;1753360;81;20984;-72
2022/09/01 06:48:58;;;;;;;6.83;3.10;;;;;;;20.74;97.03;99562.27;1745555;81;20888;-71
2022/09/01 06:51:38;;;;;;;8.18;3.98;;;;;;;20.85;96.27;99569.33;1746626;81;20952;-72
2022/09/01 06:54:13;;;;;;;6.33;3.08;;;;;;;20.91;93.57;99572.57;1698566;81;21070;-72
2022/09/01 06:56:43;;;;;;;12.50;3.08;;;;;;;20.97;91.08;99571.62;1753025;81;21026;-75
2022/09/01 06:59:15;;;;;;;8.20;3.37;;;;;;;21.08;90.25;99578.11;1719450;83;21090;-72
2022/09/01 07:01:47;;;;;;;11.03;3.25;;;;;;;21.15;91.60;99582.33;1719784;83;20987;-72
2022/09/01 07:04:41;;;;;;;6.12;3.15;;;;;;;21.22;89.95;99580.78;1719482;83;21231;-73
2022/09/01 07:07:36;;;;;;;14.20;3.50;;;;;;;21.30;88.37;99581.61;1715902;82;20960;-71
2022/09/01 07:10:21;;;;;;;8.85;3.20;;;;;;;21.33;86.83;99583.63;1719562;83;20933;-72
2022/09/01 07:13:09;;;;;;;7.60;3.27;;;;;;;21.31;86.20;99584.02;1710003;83;21460;-73
2022/09/01 07:15:42;;;;;;;11.20;4.60;;;;;;;21.36;86.12;99589.87;1713717;83;21016;-73
2022/09/01 07:21:06;;;;;;;10.08;3.10;;;;;;;21.45;88.17;99590.88;1675816;85;21016;-71
2022/09/01 07:23:48;;;;;;;5.40;3.12;;;;;;;21.50;87.93;99589.11;1672578;84;21005;-71
2022/09/01 07:26:24;;;;;;;6.08;3.40;;;;;;;21.58;86.79;99592.14;1713065;83;21012;-69
2022/09/01 07:29:16;;;;;;;9.08;4.30;;;;;;;21.69;86.57;99595.00;1741130;81;20944;-71
2022/09/01 07:32:07;;;;;;;6.42;3.67;;;;;;;21.82;83.19;99587.67;1740227;82;21513;-75
2022/09/01 07:34:45;;;;;;;13.25;4.62;;;;;;;21.95;82.35;99586.10;1741578;82;20972;-71
2022/09/01 07:37:30;;;;;;;12.35;3.67;;;;;;;22.03;81.60;99591.12;1721062;82;20940;-70
2022/09/01 07:39:59;;;;;;;5.90;3.42;;;;;;;22.06;80.06;99600.75;1719985;82;21516;-73
2022/09/01 07:42:37;;;;;;;11.43;4.10;;;;;;;21.98;79.76;99595.71;1637129;86;21545;-70
2022/09/01 07:45:28;;;;;;;11.30;4.92;;;;;;;21.92;79.96;99589.67;1678549;82;21039;-74
2022/09/01 07:48:08;;;;;;;17.32;6.83;;;;;;;21.97;80.30;99595.52;1740794;82;20929;-74
2022/09/01 07:50:46;;;;;;;;;;;;;;;22.06;82.93;99593.74;1745933;82;21095;-71
2022/09/01 07:53:30;;;;;;;15.03;6.83;;;;;;;22.15;82.65;99595.55;1743339;82;22926;-70
2022/09/01 07:56:31;;;;;;;14.35;8.98;;;;;;;22.29;80.21;99589.16;1720444;82;20928;-71
2022/09/01 07:59:09;;;;;;;22.10;8.05;;;;;;;22.34;77.01;99590.77;1743200;82;21136;-71
2022/09/01 08:02:05;;;;;;;16.17;9.45;;;;;;;22.25;77.52;99589.74;1740654;82;21497;-71
2022/09/01 08:04:48;;;;;;;13.68;8.50;;;;;;;22.17;75.32;99581.93;1743117;82;20957;-71
2022/09/01 08:07:21;;;;;;;21.85;9.18;;;;;;;22.18;76.88;99584.15;1739686;82;20935;-71
2022/09/01 08:10:05;;;;;;;20.77;10.32;;;;;;;22.20;77.67;99584.53;1743344;82;21031;-74
2022/09/01 08:12:48;;;;;;;20.88;10.53;;;;;;;22.23;77.06;99594.95;1743294;82;21263;-72
2022/09/01 08:15:20;;;;;;;18.23;9.50;;;;;;;22.25;77.45;99589.74;1738491;82;20968;-71
2022/09/01 08:18:12;;;;;;;11.63;7.35;;;;;;;22.27;75.91;99585.95;1743079;81;21040;-70
2022/09/01 08:20:46;;;;;;;7.17;4.35;;;;;;;22.31;72.96;99586.77;1743133;82;20987;-75
2022/09/01 08:23:42;;;;;;;20.32;10.75;;;;;;;22.25;73.88;99580.73;1657098;86;21115;-72
2022/09/01 08:26:37;;;;;;;21.80;9.68;;;;;;;22.17;67.63;99579.72;1626607;88;21516;-70
2022/09/01 08:29:26;;;;;;;26.65;13.95;;;;;;;22.12;67.56;99579.52;1626531;88;20981;-75
2022/09/01 08:32:07;;;;;;;;;;;;;;;22.20;70.19;99588.73;1629574;88;21096;-72
2022/09/01 08:34:39;;;;;;;15.85;7.30;;;;;;;22.34;72.64;99576.73;1707965;82;20167;-71
2022/09/01 08:37:07;;;;;;;15.95;7.58;;;;;;;22.52;72.89;99583.75;1739187;82;20957;-74
2022/09/01 08:39:48;;;;;;;19.80;11.30;;;;;;;22.65;71.90;99577.17;1739374;82;21481;-71
2022/09/01 08:42:26;;;;;;;27.15;16.05;;;;;;;22.77;66.42;99575.96;1740884;82;20925;-75
2022/09/01 08:45:05;;;;;;;31.55;19.80;;;;;;;22.86;67.84;99580.55;1724025;82;21054;-74
2022/09/01 08:47:32;;;;;;;39.67;23.40;;;;;;;23.02;69.43;99575.11;1739239;82;21489;-70
2022/09/01 08:49:59;;;;;;;25.72;13.30;;;;;;;23.22;68.63;99568.43;1720658;82;21036;-75
2022/09/01 08:52:46;;;;;;;17.10;9.03;;;;;;;23.37;66.60;99568.98;1743343;81;21842;-70
2022/09/01 08:55:24;;;;;;;;;;;;;;;23.43;65.75;99565.38;1741574;82;20881;-74
2022/09/01 08:58:17;;;;;;;27.60;16.62;;;;;;;23.30;62.50;99562.80;1743324;82;20099;-74
2022/09/01 09:01:01;;;;;;;39.78;20.15;;;;;;;23.24;64.55;99565.21;1738743;82;20945;-72
2022/09/01 09:07:04;;;;;;;36.70;21.12;;;;;;;23.29;66.36;99564.80;1741915;81;21690;-70
2022/09/01 09:09:55;;;;;;;49.85;28.07;;;;;;;23.38;67.31;99567.77;1742290;82;20949;-73
2022/09/01 09:12:37;;;;;;;40.92;23.05;;;;;;;23.47;64.97;99558.34;1738677;82;20985;-71
2022/09/01 09:15:25;;;;;;;61.50;34.18;;;;;;;23.62;63.06;99566.10;1743600;82;20980;-73
2022/09/01 09:21:39;;;;;;;68.25;38.73;;;;;;;23.98;60.18;99562.29;1743753;81;21078;-72
2022/09/01 09:24:55;;;;;;;65.72;39.83;;;;;;;24.15;60.89;99563.38;1739541;82;20929;-71
2022/09/01 09:27:39;;;;;;;76.57;40.03;;;;;;;24.40;60.86;99564.42;1743404;82;20964;-72
2022/09/01 09:30:25;;;;;;;66.40;37.33;;;;;;;24.60;59.99;99564.64;1740878;82;21003;-73
2022/09/01 09:33:11;;;;;;;51.20;27.87;;;;;;;24.48;56.29;99558.91;1743063;82;20997;-72
2022/09/01 09:35:53;;;;;;;55.88;30.85;;;;;;;24.25;55.63;99558.11;1734131;82;21553;-73
2022/09/01 09:38:30;;;;;;;38.02;23.20;;;;;;;23.99;56.36;99556.84;1740150;82;20998;-70
2022/09/01 09:41:18;;;;;;;42.85;25.62;;;;;;;23.86;60.64;99556.53;1743452;82;21401;-72
2022/09/01 09:49:28;;;;;;;22.42;12.40;;;;;;;23.42;62.63;99560.17;1716880;82;21464;-71
2022/09/01 09:52:23;;;;;;;26.23;8.68;;;;;;;23.23;61.06;99558.00;1739315;82;20881;-71
2022/09/01 09:55:06;;;;;;;10.70;6.45;;;;;;;23.21;63.75;99559.00;1720893;82;20928;-72
2022/09/01 09:57:59;;;;;;;14.70;5.70;;;;;;;23.20;62.56;99560.22;1741249;82;20984;-72
2022/09/01 10:00:43;;;;;;;11.97;5.08;;;;;;;23.20;65.33;99556.01;1741204;82;20908;-75
2022/09/01 10:03:14;;;;;;;7.60;3.95;;;;;;;23.09;65.14;99548.41;1739860;82;21158;-69
2022/09/01 10:05:54;;;;;;;6.92;4.15;;;;;;;22.97;67.51;99554.45;1750460;81;20933;-73
2022/09/01 10:08:51;;;;;;;4.85;3.58;;;;;;;22.80;62.57;99556.90;1741407;82;20991;-72
2022/09/01 10:11:37;;;;;;;10.50;3.65;;;;;;;22.68;64.31;99554.50;1743223;82;21544;-69
2022/09/01 10:14:23;;;;;;;11.25;3.72;;;;;;;22.66;67.01;99559.70;1740245;82;20897;-70
2022/09/01 10:17:07;;;;;;;3.20;2.30;;;;;;;22.70;69.70;99556.30;1739658;82;21438;-73
2022/09/01 10:19:40;;;;;;;7.22;1.12;;;;;;;22.85;70.28;99554.27;1748291;81;21027;-72
2022/09/01 10:22:14;;;;;;;5.62;1.22;;;;;;;23.05;67.43;99548.20;1750435;81;21047;-70
2022/09/01 10:24:47;;;;;;;4.70;1.55;;;;;;;23.25;67.24;99562.61;1746997;82;21426;-73
2022/09/01 10:30:20;;;;;;;1.52;1.20;;;;;;;23.50;65.26;99554.71;1722399;81;20992;-70
2022/09/01 10:32:59;;;;;;;1.90;1.10;;;;;;;23.66;61.41;99550.00;1723337;81;21477;-72
2022/09/01 10:35:33;;;;;;;5.33;1.40;;;;;;;23.88;60.60;99554.72;1745744;81;21064;-72
2022/09/01 10:38:18;;;;;;;14.00;1.40;;;;;;;23.99;57.83;99555.44;1721182;81;20980;-70
2022/09/01 10:41:05;;;;;;;6.17;1.00;;;;;;;24.04;62.63;99551.37;1750700;81;20948;-71
2022/09/01 10:46:44;;;;;;;9.50;0.80;;;;;;;24.16;57.20;99545.88;1745788;81;21500;-73
2022/09/01 10:49:52;;;;;;;1.57;0.80;;;;;;;24.09;49.70;99543.13;1750209;82;21429;-72
2022/09/01 10:52:51;;;;;;;6.97;0.70;;;;;;;24.15;51.61;99547.09;1654537;86;21032;-71
2022/09/01 10:56:12;;;;;;;1.65;0.60;;;;;;;24.30;52.12;99540.18;1657846;86;21548;-71
2022/09/01 10:59:06;;;;;;;3.95;0.78;;;;;;;24.44;50.73;99538.45;1662489;86;21219;-72
2022/09/01 11:01:45;;;;;;;;;;;;;;;24.64;52.04;99539.27;1625373;88;21548;-72
2022/09/01 11:04:25;;;;;;;1.30;0.78;;;;;;;24.54;47.46;99541.79;1662694;86;20192;-72
2022/09/01 11:07:08;;;;;;;;;;;;;;;24.46;50.07;99537.44;1630339;88;21036;-74
2022/09/01 11:10:21;;;;;;;1.02;0.70;;;;;;;24.66;50.23;99535.44;1699318;83;20429;-70
2022/09/01 11:13:17;;;;;;;1.87;0.85;;;;;;;24.86;50.14;99529.20;1745796;81;21833;-74
2022/09/01 11:15:50;;;;;;;1.42;0.70;;;;;;;24.98;47.50;99527.89;1750418;81;20981;-73
2022/09/01 11:18:36;;;;;;;4.47;1.00;;;;;;;25.06;47.25;99530.81;1746702;81;20988;-72
2022/09/01 11:21:26;;;;;;;5.87;1.80;;;;;;;25.18;48.62;99526.65;1725482;81;20928;-70
2022/09/01 11:24:46;;;;;;;5.25;2.47;;;;;;;25.07;47.12;99528.20;1747307;82;20849;-71
2022/09/01 11:27:53;;;;;;;3.60;1.80;;;;;;;24.80;45.84;99524.02;1729849;82;20983;-72
2022/09/01 11:31:14;;;;;;;6.78;1.98;;;;;;;24.40;46.05;99527.22;1749746;81;21007;-72
2022/09/01 11:34:22;;;;;;;13.03;2.70;;;;;;;24.00;46.20;99531.73;1736094;82;21000;-74
2022/09/01 11:37:06;;;;;;;5.85;2.22;;;;;;;24.03;48.83;99518.84;1734085;81;20940;-70
2022/09/01 11:40:01;;;;;;;6.10;3.08;;;;;;;24.20;50.59;99522.77;1744364;82;20916;-72
2022/09/01 11:42:46;;;;;;;7.20;3.42;;;;;;;24.34;47.25;99519.64;1750985;82;27115;-69
2022/09/01 11:45:34;;;;;;;16.75;5.05;;;;;;;24.39;46.28;99518.59;1748140;82;20976;-75
2022/09/01 11:48:36;;;;;;;5.20;4.17;;;;;;;24.40;47.11;99513.15;1749636;82;20980;-74
2022/09/01 11:51:44;;;;;;;13.85;6.33;;;;;;;24.55;46.84;99512.41;1723995;83;21064;-69
2022/09/01 11:54:17;;;;;;;7.33;4.50;;;;;;;24.64;45.71;99518.16;1699757;83;21544;-70
2022/09/01 11:56:51;;;;;;;12.35;6.00;;;;;;;24.56;46.13;99517.44;1722662;83;21865;-70
2022/09/01 12:02:34;;;;;;;8.70;5.10;;;;;;;24.12;46.66;99534.64;1747104;82;20940;-74
2022/09/01 12:06:02;;;;;;;;;;;;;;;;;;;;;
2022/09/01 12:08:32;;;;;;;7.85;4.80;;;;;;;23.72;45.44;99522.26;1720507;82;20999;-71
2022/09/01 12:11:15;;;;;;;6.65;3.55;;;;;;;23.71;48.56;99510.20;1749890;82;21068;-73
2022/09/01 12:14:06;;;;;;;13.25;3.58;;;;;;;23.92;46.64;99506.25;1726111;81;20912;-73
2022/09/01 12:16:38;;;;;;;6.25;2.47;;;;;;;24.04;45.94;99502.95;1747240;82;21414;-76
2022/09/01 12:19:11;;;;;;;6.67;1.82;;;;;;;24.15;45.31;99498.66;1746942;81;20964;-72
2022/09/01 12:22:10;;;;;;;11.25;2.35;;;;;;;24.33;44.17;99502.58;1741143;82;20917;-72
2022/09/01 12:24:51;;;;;;;3.85;1.98;;;;;;;24.35;43.43;99504.34;1739600;82;20981;-73
2022/09/01 12:27:25;;;;;;;2.30;1.60;;;;;;;24.47;47.22;99503.84;1719536;82;20949;-71
2022/09/01 12:30:00;;;;;;;2.00;0.98;;;;;;;24.72;47.26;99494.33;1743635;82;21056;-72
2022/09/01 12:32:35;;;;;;;4.67;1.00;;;;;;;24.99;44.91;99489.43;1722403;82;21008;-70
2022/09/01 12:35:26;;;;;;;1.80;1.00;;;;;;;25.15;42.86;99495.09;1721078;82;20959;-72
2022/09/01 12:38:26;;;;;;;3.08;1.15;;;;;;;25.24;42.47;99496.80;1741959;82;21161;-71
2022/09/01 12:41:11;;;;;;;1.95;1.00;;;;;;;25.20;40.28;99493.84;1739476;82;20924;-71
2022/09/01 12:43:45;;;;;;;3.10;1.00;;;;;;;25.00;40.99;99501.51;1677069;82;20984;-72
2022/09/01 12:46:42;;;;;;;1.62;0.90;;;;;;;24.84;42.82;99504.27;1739373;82;21481;-70
2022/09/01 12:49:30;;;;;;;2.90;0.80;;;;;;;24.82;40.01;99498.27;1709974;82;21079;-71
2022/09/01 12:52:24;;;;;;;2.05;0.93;;;;;;;24.73;40.89;99498.77;1739535;82;21028;-73
2022/09/01 12:55:19;;;;;;;1.42;1.00;;;;;;;24.77;42.02;99492.47;1743341;82;20897;-73
2022/09/01 13:01:06;;;;;;;3.98;0.90;;;;;;;25.16;40.60;99475.56;1707923;82;20988;-72
2022/09/01 13:03:39;;;;;;;1.95;0.93;;;;;;;25.24;40.34;99480.48;1739323;82;21397;-71
2022/09/01 13:06:11;;;;;;;3.50;0.80;;;;;;;25.32;40.29;99475.57;1719486;82;21870;-74
2022/09/01 13:08:42;;;;;;;3.90;0.90;;;;;;;25.35;39.29;99478.95;1715001;82;21079;-75
2022/09/01 13:11:22;;;;;;;1.55;0.80;;;;;;;25.35;38.76;99480.36;1743298;82;20991;-77
2022/09/01 13:14:00;;;;;;;8.13;0.80;;;;;;;25.43;39.44;99489.50;1740014;82;21166;-72
2022/09/01 13:16:36;;;;;;;1.87;0.88;;;;;;;25.56;37.69;99486.90;1741182;82;21536;-72